Time;durP1;ratioP1;P1;durP2;ratioP2;P2;SDS_P1;SDS_P2;PMS_P1;PMS_P2;Temp;Humidity;BMP_temperature;BMP_pressure;BME280_temperature;BME280_humidity;BME280_pressure;Samples;Min_cycle;Max_cycle;Signal;HPM_P1;HPM_P2
2021/10/01 00:00:05;;;;;;;;;;;12.30;89.50;;;;;;4315535;33;44881;-80
2021/10/01 00:02:41;;;;;;;;;;;12.30;89.50;;;;;;4316108;33;20018;-80
2021/10/01 00:05:19;;;;;;;;;;;12.30;89.60;;;;;;4316323;33;43656;-79
2021/10/01 00:07:54;;;;;;;;;;;12.20;89.40;;;;;;4303437;33;42359;-80
2021/10/01 00:10:25;;;;;;;;;;;12.30;89.50;;;;;;4316380;33;43237;-80
2021/10/01 00:12:57;;;;;;;;;;;12.30;89.50;;;;;;4315756;33;45086;-79
2021/10/01 00:15:28;;;;;;;;;;;12.30;89.30;;;;;;4315333;33;44323;-80
2021/10/01 00:17:58;;;;;;;;;;;12.30;89.40;;;;;;4303318;33;43248;-79
2021/10/01 00:20:27;;;;;;;;;;;12.30;89.30;;;;;;4302967;33;45257;-79
2021/10/01 00:23:02;;;;;;;;;;;12.30;89.30;;;;;;4316385;33;43178;-80
2021/10/01 00:25:37;;;;;;;;;;;12.30;89.30;;;;;;4303132;33;44637;-79
2021/10/01 00:28:10;;;;;;;;;;;12.20;89.20;;;;;;4315225;33;44647;-80
2021/10/01 00:30:45;;;;;;;;;;;12.20;89.10;;;;;;4303448;33;43243;-79
2021/10/01 00:33:24;;;;;;;;;;;12.30;89.20;;;;;;4316958;33;20001;-79
2021/10/01 00:35:53;;;;;;;;;;;12.20;89.00;;;;;;4315155;33;43305;-80
2021/10/01 00:38:23;;;;;;;;;;;12.20;89.10;;;;;;4303491;33;44714;-80
2021/10/01 00:41:01;;;;;;;;;;;12.20;89.00;;;;;;4316164;33;44733;-79
2021/10/01 00:43:37;;;;;;;;;;;12.20;89.00;;;;;;4302980;33;44912;-79
2021/10/01 00:46:07;;;;;;;;;;;12.20;89.00;;;;;;4302427;33;44859;-80
2021/10/01 00:48:42;;;;;;;;;;;12.20;89.00;;;;;;4315992;33;44340;-79
2021/10/01 00:51:17;;;;;;;;;;;12.20;88.90;;;;;;4303025;33;44299;-80
2021/10/01 00:53:50;;;;;;;;;;;12.20;89.00;;;;;;4315088;33;46152;-79
2021/10/01 00:56:22;;;;;;;;;;;12.20;88.90;;;;;;4316010;33;45437;-79
2021/10/01 00:58:57;;;;;;;;;;;12.20;88.90;;;;;;4316006;33;44756;-80
2021/10/01 01:01:27;;;;;;;;;;;12.20;88.80;;;;;;4314665;33;45536;-79
2021/10/01 01:03:59;;;;;;;;;;;12.20;88.80;;;;;;4316102;33;43466;-80
2021/10/01 01:06:49;;;;;;;;;;;12.20;88.80;;;;;;4302446;33;42754;-79
2021/10/01 01:09:47;;;;;;;;;;;12.20;88.80;;;;;;4314753;33;43973;-79
2021/10/01 01:12:33;;;;;;;;;;;12.20;88.70;;;;;;4315480;33;43474;-79
2021/10/01 01:15:17;;;;;;;;;;;12.20;88.70;;;;;;4314451;33;44245;-79
2021/10/01 01:18:07;;;;;;;;;;;12.20;88.70;;;;;;4316005;33;43465;-80
2021/10/01 01:20:48;;;;;;;;;;;12.20;88.60;;;;;;4314826;33;43823;-80
2021/10/01 01:23:36;;;;;;;;;;;12.10;88.70;;;;;;4316104;33;43888;-80
2021/10/01 01:26:23;;;;;;;;;;;12.10;88.70;;;;;;4317583;33;43887;-79
2021/10/01 01:28:50;;;;;;;;;;;12.10;88.60;;;;;;4317804;33;44644;-80
2021/10/01 01:31:29;;;;;;;;;;;12.10;88.60;;;;;;4318340;33;43253;-79
2021/10/01 01:34:08;;;;;;;;;;;12.10;88.70;;;;;;4318290;33;20006;-79
2021/10/01 01:36:43;;;;;;;;;;;12.20;88.60;;;;;;4317338;33;42683;-79
2021/10/01 01:39:19;;;;;;;;;;;12.10;88.60;;;;;;4305599;33;43025;-79
2021/10/01 01:41:54;;;;;;;;;;;12.10;88.50;;;;;;4317404;33;45899;-80
2021/10/01 01:44:32;;;;;;;;;;;12.10;88.70;;;;;;4318726;33;45917;-80
2021/10/01 01:47:00;;;;;;;;;;;12.10;88.60;;;;;;4317515;33;43558;-80
2021/10/01 01:49:36;;;;;;;;;;;12.20;88.60;;;;;;4318029;33;42928;-79
2021/10/01 01:52:14;;;;;;;;;;;12.20;88.60;;;;;;4305300;33;45736;-80
2021/10/01 01:54:47;;;;;;;;;;;12.20;88.60;;;;;;4305307;33;43719;-80
2021/10/01 01:57:28;;;;;;;;;;;12.20;88.60;;;;;;4305574;33;44327;-79
2021/10/01 02:00:06;;;;;;;;;;;12.10;88.50;;;;;;4318081;33;44599;-79
2021/10/01 02:02:42;;;;;;;;;;;12.10;88.50;;;;;;4304683;33;45571;-80
2021/10/01 02:05:21;;;;;;;;;;;12.10;88.60;;;;;;4318871;33;20038;-80
2021/10/01 02:07:56;;;;;;;;;;;12.10;88.50;;;;;;4318279;33;45047;-78
2021/10/01 02:10:29;;;;;;;;;;;12.10;88.40;;;;;;4305101;33;43843;-79
2021/10/01 02:13:08;;;;;;;;;;;12.10;88.50;;;;;;4316794;33;42588;-79
2021/10/01 02:15:39;;;;;;;;;;;12.10;88.50;;;;;;4317605;33;42982;-80
2021/10/01 02:18:11;;;;;;;;;;;12.00;88.50;;;;;;4305419;33;44185;-79
2021/10/01 02:20:44;;;;;;;;;;;12.10;88.50;;;;;;4304324;33;44006;-80
2021/10/01 02:23:22;;;;;;;;;;;12.00;88.50;;;;;;4304851;33;45842;-79
2021/10/01 02:29:00;;;;;;;;;;;12.00;88.50;;;;;;4318031;33;45711;-79
2021/10/01 02:31:39;;;;;;;;;;;12.00;88.50;;;;;;4318020;33;43769;-80
2021/10/01 02:34:15;;;;;;;;;;;12.00;88.50;;;;;;4304993;33;43180;-80
2021/10/01 02:36:53;;;;;;;;;;;12.00;88.50;;;;;;4316525;33;46113;-79
2021/10/01 02:39:31;;;;;;;;;;;12.00;88.50;;;;;;4316667;33;44207;-79
2021/10/01 02:41:59;;;;;;;;;;;12.00;88.50;;;;;;4316911;33;44125;-79
2021/10/01 02:44:28;;;;;;;;;;;12.00;88.50;;;;;;4304310;33;45159;-80
2021/10/01 02:47:07;;;;;;;;;;;12.00;88.50;;;;;;4316646;33;45748;-79
2021/10/01 02:49:43;;;;;;;;;;;12.00;88.50;;;;;;4304633;33;42663;-80
2021/10/01 02:52:28;;;;;;;;;;;12.00;88.50;;;;;;4316372;33;45018;-78
2021/10/01 02:55:12;;;;;;;;;;;12.00;88.40;;;;;;4317331;33;42478;-78
2021/10/01 02:57:48;;;;;;;;;;;12.00;88.50;;;;;;4303940;33;43408;-79
2021/10/01 03:00:21;;;;;;;;;;;11.90;88.50;;;;;;4317510;33;44822;-80
2021/10/01 03:02:51;;;;;;;;;;;11.90;88.50;;;;;;4316238;33;44251;-80
2021/10/01 03:05:24;;;;;;;;;;;11.90;88.60;;;;;;4316434;33;45327;-79
2021/10/01 03:08:00;;;;;;;;;;;11.90;88.60;;;;;;4304951;33;19993;-79
2021/10/01 03:10:32;;;;;;;;;;;11.90;88.60;;;;;;4316324;33;44776;-80
2021/10/01 03:13:10;;;;;;;;;;;11.90;88.60;;;;;;4303978;33;45110;-79
2021/10/01 03:15:45;;;;;;;;;;;11.90;88.50;;;;;;4317247;33;44822;-79
2021/10/01 03:18:23;;;;;;;;;;;11.90;88.60;;;;;;4316952;33;43825;-79
2021/10/01 03:20:56;;;;;;;;;;;11.90;88.60;;;;;;4317189;33;43927;-78
2021/10/01 03:23:32;;;;;;;;;;;11.90;88.60;;;;;;4316113;33;43551;-80
2021/10/01 03:25:59;;;;;;;;;;;11.90;88.60;;;;;;4317221;33;43566;-80
2021/10/01 03:28:31;;;;;;;;;;;11.90;88.60;;;;;;4304047;33;44069;-79
2021/10/01 03:31:03;;;;;;;;;;;11.80;88.60;;;;;;4317100;33;43972;-79
2021/10/01 03:33:36;;;;;;;;;;;11.80;88.60;;;;;;4315468;33;42865;-79
2021/10/01 03:36:07;;;;;;;;;;;11.80;88.60;;;;;;4315656;33;44237;-79
2021/10/01 03:38:37;;;;;;;;;;;11.80;88.70;;;;;;4316583;33;20017;-79
2021/10/01 03:41:12;;;;;;;;;;;11.80;88.70;;;;;;4303810;33;43959;-78
2021/10/01 03:43:47;;;;;;;;;;;11.80;88.80;;;;;;4316995;33;44194;-79
2021/10/01 03:46:20;;;;;;;;;;;11.80;88.80;;;;;;4303705;33;44074;-79
2021/10/01 03:48:53;;;;;;;;;;;11.70;88.80;;;;;;4316732;33;44953;-79
2021/10/01 03:51:31;;;;;;;;;;;11.70;88.80;;;;;;4316903;33;44055;-79
2021/10/01 03:54:05;;;;;;;;;;;11.70;88.80;;;;;;4316687;33;46114;-79
2021/10/01 03:56:44;;;;;;;;;;;11.70;88.80;;;;;;4316648;33;43108;-79
2021/10/01 03:59:16;;;;;;;;;;;11.70;88.90;;;;;;4315168;33;42604;-79
2021/10/01 04:01:51;;;;;;;;;;;11.70;88.80;;;;;;4316594;33;43061;-79
2021/10/01 04:04:29;;;;;;;;;;;11.70;88.90;;;;;;4315470;33;43962;-79
2021/10/01 04:07:01;;;;;;;;;;;11.70;88.90;;;;;;4315500;33;43874;-79
2021/10/01 04:09:39;;;;;;;;;;;11.70;88.80;;;;;;4316343;33;19998;-80
2021/10/01 04:12:08;;;;;;;;;;;11.70;88.80;;;;;;4303323;33;43284;-79
2021/10/01 04:14:43;;;;;;;;;;;11.70;88.80;;;;;;4303353;33;44306;-79
2021/10/01 04:17:18;;;;;;;;;;;11.70;88.80;;;;;;4303196;33;43469;-79
2021/10/01 04:19:57;;;;;;;;;;;11.70;89.60;;;;;;4316419;33;44213;-79
2021/10/01 04:22:32;;;;;;;;;;;11.70;88.80;;;;;;4316069;33;43416;-79
2021/10/01 04:25:07;;;;;;;;;;;11.60;88.80;;;;;;4315355;33;44333;-79
2021/10/01 04:27:45;;;;;;;;;;;11.70;88.90;;;;;;4316228;33;45942;-79
2021/10/01 04:30:18;;;;;;;;;;;11.60;88.80;;;;;;4302577;33;44220;-80
2021/10/01 04:33:33;;;;;;;;;;;11.60;88.80;;;;;;4303317;33;43923;-78
2021/10/01 04:35:49;;;;;;;;;;;11.60;88.80;;;;;;4313306;33;44629;-79
2021/10/01 04:38:20;;;;;;;;;;;11.60;88.80;;;;;;4314722;33;43066;-79
2021/10/01 04:40:50;;;;;;;;;;;11.60;88.80;;;;;;4316323;33;44078;-79
2021/10/01 04:43:28;;;;;;;;;;;11.60;88.90;;;;;;4302970;33;42486;-79
2021/10/01 04:46:01;;;;;;;;;;;11.60;88.80;;;;;;4314973;33;45099;-80
2021/10/01 04:48:34;;;;;;;;;;;11.60;88.80;;;;;;4302600;33;42222;-79
2021/10/01 04:51:09;;;;;;;;;;;11.60;88.90;;;;;;4316024;33;42840;-79
2021/10/01 04:53:44;;;;;;;;;;;11.60;88.90;;;;;;4302565;33;42684;-78
2021/10/01 04:56:23;;;;;;;;;;;11.50;88.90;;;;;;4303071;33;43923;-79
2021/10/01 04:59:04;;;;;;;;;;;11.50;88.90;;;;;;4314332;33;45238;-79
2021/10/01 05:01:36;;;;;;;;;;;11.50;89.00;;;;;;4315920;33;44052;-79
2021/10/01 05:04:15;;;;;;;;;;;11.50;89.00;;;;;;4315947;33;45493;-78
2021/10/01 05:06:45;;;;;;;;;;;11.50;88.90;;;;;;4315757;33;44208;-79
2021/10/01 05:09:12;;;;;;;;;;;11.50;88.90;;;;;;4315791;33;44992;-79
2021/10/01 05:11:39;;;;;;;;;;;11.50;89.00;;;;;;4303982;33;20020;-80
2021/10/01 05:14:06;;;;;;;;;;;11.50;89.00;;;;;;4315813;33;45267;-80
2021/10/01 05:16:44;;;;;;;;;;;11.50;89.00;;;;;;4302333;33;42274;-80
2021/10/01 05:19:21;;;;;;;;;;;11.50;89.00;;;;;;4302591;33;43647;-79
2021/10/01 05:21:59;;;;;;;;;;;11.50;89.00;;;;;;4303195;33;43895;-79
2021/10/01 05:24:34;;;;;;;;;;;11.50;89.00;;;;;;4302784;33;44049;-80
2021/10/01 05:27:12;;;;;;;;;;;11.50;89.00;;;;;;4302349;33;43516;-80
2021/10/01 05:29:44;;;;;;;;;;;11.50;88.90;;;;;;4315385;33;43133;-80
2021/10/01 05:32:19;;;;;;;;;;;11.50;88.90;;;;;;4314901;33;43843;-78
2021/10/01 05:34:52;;;;;;;;;;;11.50;88.90;;;;;;4302625;33;44103;-79
2021/10/01 05:37:28;;;;;;;;;;;11.50;89.00;;;;;;4302665;33;43161;-79
2021/10/01 05:40:03;;;;;;;;;;;11.50;89.00;;;;;;4315691;33;44861;-79
2021/10/01 05:42:42;;;;;;;;;;;11.50;89.00;;;;;;4303426;33;20006;-79
2021/10/01 05:45:10;;;;;;;;;;;11.50;89.00;;;;;;4302717;33;44218;-79
2021/10/01 05:47:45;;;;;;;;;;;11.50;89.00;;;;;;4315303;33;43214;-80
2021/10/01 05:50:23;;;;;;;;;;;11.50;88.90;;;;;;4315812;33;43584;-79
2021/10/01 05:53:02;;;;;;;;;;;11.50;88.90;;;;;;4315710;33;43969;-79
2021/10/01 05:55:29;;;;;;;;;;;11.60;89.00;;;;;;4315495;33;42726;-80
2021/10/01 05:57:59;;;;;;;;;;;11.50;88.90;;;;;;4302227;33;43529;-80
2021/10/01 06:00:29;;;;;;;;;;;11.50;88.90;;;;;;4314260;33;42939;-80
2021/10/01 06:03:04;;;;;;;;;;;11.60;88.90;;;;;;4313799;33;44632;-79
2021/10/01 06:05:36;;;;;;;;;;;11.60;88.90;;;;;;4302529;33;44405;-80
2021/10/01 06:08:11;;;;;;;;;;;11.60;88.90;;;;;;4302204;33;44792;-80
2021/10/01 06:10:44;;;;;;;;;;;11.60;88.90;;;;;;4303480;33;42302;-80
2021/10/01 06:13:17;;;;;;;;;;;11.60;88.90;;;;;;4306197;33;20039;-80
2021/10/01 06:15:47;;;;;;;;;;;11.60;88.90;;;;;;4317999;33;44394;-79
2021/10/01 06:18:16;;;;;;;;;;;11.60;88.90;;;;;;4317856;33;45726;-80
2021/10/01 06:20:52;;;;;;;;;;;11.60;88.80;;;;;;4316974;33;44197;-79
2021/10/01 06:23:27;;;;;;;;;;;11.70;89.00;;;;;;4316907;33;42815;-80
2021/10/01 06:25:59;;;;;;;;;;;11.60;88.80;;;;;;4317547;33;44073;-79
2021/10/01 06:28:37;;;;;;;;;;;11.60;88.90;;;;;;4317003;33;42895;-80
2021/10/01 06:31:13;;;;;;;;;;;11.70;89.00;;;;;;4317957;33;45356;-81
2021/10/01 06:33:51;;;;;;;;;;;11.70;88.90;;;;;;4304602;33;43251;-79
2021/10/01 06:36:22;;;;;;;;;;;11.70;88.90;;;;;;4317022;33;43075;-80
2021/10/01 06:38:58;;;;;;;;;;;11.70;89.00;;;;;;4316499;33;42882;-80
2021/10/01 06:41:33;;;;;;;;;;;11.60;89.00;;;;;;4316748;33;42946;-80
2021/10/01 06:44:09;;;;;;;;;;;11.70;89.00;;;;;;4317697;33;20037;-80
2021/10/01 06:49:29;;;;;;;;;;;11.70;89.00;;;;;;4317769;33;44115;-80
2021/10/01 07:23:36;;;;;;;;;;;11.70;89.20;;;;;;4316510;33;44759;-80
2021/10/01 08:18:16;;;;;;;;;;;11.90;89.40;;;;;;4317674;33;20042;-80
2021/10/01 08:21:13;;;;;;;;;;;12.20;89.30;;;;;;4316296;33;43585;-80
2021/10/01 08:23:42;;;;;;;;;;;12.20;89.30;;;;;;4316445;33;41526;-80
2021/10/01 08:26:12;;;;;;;;;;;12.30;89.40;;;;;;4315312;33;44318;-80
2021/10/01 08:28:39;;;;;;;;;;;12.30;89.40;;;;;;4315890;33;44281;-80
2021/10/01 08:31:06;;;;;;;;;;;12.40;89.40;;;;;;4315938;33;42358;-80
2021/10/01 08:33:34;;;;;;;;;;;12.40;89.60;;;;;;4315623;33;44041;-80
2021/10/01 08:36:01;;;;;;;;;;;12.40;89.40;;;;;;4316119;33;43926;-79
2021/10/01 08:38:28;;;;;;;;;;;12.40;89.50;;;;;;4315640;33;43478;-79
2021/10/01 08:40:58;;;;;;;;;;;12.50;89.80;;;;;;4316272;33;44186;-80
2021/10/01 08:43:31;;;;;;;;;;;12.50;89.60;;;;;;4302610;33;44064;-79
2021/10/01 08:45:59;;;;;;;;;;;12.60;89.60;;;;;;4316792;33;19994;-79
2021/10/01 08:48:32;;;;;;;;;;;12.60;89.50;;;;;;4315855;33;44113;-80
2021/10/01 08:50:59;;;;;;;;;;;12.60;89.70;;;;;;4316128;33;44850;-79
2021/10/01 08:53:30;;;;;;;;;;;12.70;89.50;;;;;;4315657;33;43761;-79
2021/10/01 08:55:58;;;;;;;;;;;12.70;89.80;;;;;;4315584;33;44986;-80
2021/10/01 08:58:27;;;;;;;;;;;12.80;89.60;;;;;;4314927;33;43343;-79
2021/10/01 09:00:57;;;;;;;;;;;12.90;89.90;;;;;;4302966;33;43905;-79
2021/10/01 09:03:39;;;;;;;;;;;13.00;89.60;;;;;;4314757;33;46031;-81
2021/10/01 09:06:10;;;;;;;;;;;13.10;89.40;;;;;;4302916;33;46050;-79
2021/10/01 09:09:09;;;;;;;;;;;13.10;89.20;;;;;;4302945;33;44242;-80
2021/10/01 09:11:37;;;;;;;;;;;13.20;89.10;;;;;;4309659;33;43516;-85
2021/10/01 09:14:08;;;;;;;;;;;13.20;89.10;;;;;;4315520;33;43345;-81
2021/10/01 09:16:39;;;;;;;;;;;13.30;88.90;;;;;;4303675;33;20040;-81
2021/10/01 09:19:07;;;;;;;;;;;13.40;88.70;;;;;;4302164;33;45216;-81
2021/10/01 09:21:42;;;;;;;;;;;13.40;88.80;;;;;;4315856;33;45609;-80
2021/10/01 09:24:14;;;;;;;;;;;13.50;88.90;;;;;;4302586;33;43194;-80
2021/10/01 09:26:50;;;;;;;;;;;13.50;89.00;;;;;;4302365;33;42888;-81
2021/10/01 09:29:46;;;;;;;;;;;13.60;89.00;;;;;;4301940;33;44115;-80
2021/10/01 09:32:15;;;;;;;;;;;13.60;88.60;;;;;;4314574;33;43855;-82
2021/10/01 09:34:49;;;;;;;;;;;13.70;88.40;;;;;;4315424;33;43917;-80
2021/10/01 09:37:22;;;;;;;;;;;13.80;88.50;;;;;;4302506;33;42730;-80
2021/10/01 09:39:55;;;;;;;;;;;13.80;88.10;;;;;;4315748;33;42603;-81
2021/10/01 09:42:26;;;;;;;;;;;13.90;88.00;;;;;;4302694;33;45267;-80
2021/10/01 09:45:04;;;;;;;;;;;13.90;88.00;;;;;;4302045;33;44242;-81
2021/10/01 09:47:32;;;;;;;;;;;14.00;87.70;;;;;;4319526;33;20387;-79
2021/10/01 09:50:03;;;;;;;;;;;14.00;86.80;;;;;;4304927;33;44323;-80
2021/10/01 09:52:45;;;;;;;;;;;14.10;87.40;;;;;;4317490;33;44521;-80
2021/10/01 09:55:24;;;;;;;;;;;14.10;87.30;;;;;;4318219;33;44116;-80
2021/10/01 09:58:03;;;;;;;;;;;14.10;87.00;;;;;;4317483;33;43478;-81
2021/10/01 10:00:49;;;;;;;;;;;14.20;87.10;;;;;;4318445;33;43192;-81
2021/10/01 10:03:33;;;;;;;;;;;14.20;87.10;;;;;;4304927;33;45327;-82
2021/10/01 10:06:02;;;;;;;;;;;14.30;87.10;;;;;;4318239;33;42799;-82
2021/10/01 10:08:42;;;;;;;;;;;14.40;86.90;;;;;;4304996;33;43300;-82
2021/10/01 10:11:18;;;;;;;;;;;14.40;86.60;;;;;;4318263;33;43511;-81
2021/10/01 10:13:54;;;;;;;;;;;14.50;86.50;;;;;;4318259;33;43246;-81
2021/10/01 10:16:29;;;;;;;;;;;14.50;86.00;;;;;;4317942;33;44241;-83
2021/10/01 10:19:06;;;;;;;;;;;14.60;86.00;;;;;;4318023;33;20359;-82
2021/10/01 10:21:42;;;;;;;;;;;14.60;85.80;;;;;;4318040;33;44175;-83
2021/10/01 10:24:23;;;;;;;;;;;14.70;86.20;;;;;;4304850;33;44633;-82
2021/10/01 10:26:57;;;;;;;;;;;14.70;85.70;;;;;;4305195;33;43261;-83
2021/10/01 10:29:32;;;;;;;;;;;14.70;85.60;;;;;;4317943;33;42933;-81
2021/10/01 10:32:00;;;;;;;;;;;14.80;85.70;;;;;;4317010;33;43562;-82
2021/10/01 10:34:31;;;;;;;;;;;14.80;85.40;;;;;;4304853;33;44107;-81
2021/10/01 10:37:10;;;;;;;;;;;14.80;85.40;;;;;;4317628;33;44277;-81
2021/10/01 10:39:45;;;;;;;;;;;14.90;85.80;;;;;;4304220;33;42878;-82
2021/10/01 10:42:16;;;;;;;;;;;15.00;85.70;;;;;;4304773;33;43930;-82
2021/10/01 10:44:53;;;;;;;;;;;15.00;85.60;;;;;;4317679;33;45972;-83
2021/10/01 10:47:41;;;;;;;;;;;15.10;84.80;;;;;;4317712;33;44251;-85
2021/10/01 10:50:21;;;;;;;;;;;15.10;84.80;;;;;;4316525;33;43833;-83
2021/10/01 10:53:09;;;;;;;;;;;15.10;85.00;;;;;;4317669;33;42543;-82
2021/10/01 10:55:42;;;;;;;;;;;15.20;85.00;;;;;;4304621;33;45798;-83
2021/10/01 10:58:26;;;;;;;;;;;15.20;85.10;;;;;;4303857;33;45501;-82
2021/10/01 11:01:21;;;;;;;;;;;15.20;85.10;;;;;;4316477;33;46263;-84
2021/10/01 11:03:54;;;;;;;;;;;15.30;84.50;;;;;;4316630;33;43161;-84
2021/10/01 11:06:26;;;;;;;;;;;15.30;84.80;;;;;;4316062;33;44065;-86
2021/10/01 11:09:12;;;;;;;;;;;15.30;84.30;;;;;;4315867;33;43852;-83
2021/10/01 11:11:46;;;;;;;;;;;15.30;84.80;;;;;;4316238;33;45883;-83
2021/10/01 11:14:14;;;;;;;;;;;15.20;84.00;;;;;;4303833;33;44157;-81
2021/10/01 11:16:50;;;;;;;;;;;15.20;84.10;;;;;;4316295;33;45801;-82
2021/10/01 11:19:17;;;;;;;;;;;15.20;83.90;;;;;;4316608;33;28087;-82
2021/10/01 11:21:44;;;;;;;;;;;15.20;84.40;;;;;;4317202;33;46043;-83
2021/10/01 11:24:23;;;;;;;;;;;15.30;84.50;;;;;;4316553;33;43738;-83
2021/10/01 11:26:58;;;;;;;;;;;15.30;84.90;;;;;;4303918;33;43284;-83
2021/10/01 11:29:29;;;;;;;;;;;15.30;84.70;;;;;;4317034;33;43739;-82
2021/10/01 11:32:31;;;;;;;;;;;15.40;84.50;;;;;;4317076;33;46026;-82
2021/10/01 11:35:00;;;;;;;;;;;15.40;84.30;;;;;;4292249;33;45368;-82
2021/10/01 11:37:29;;;;;;;;;;;15.40;84.30;;;;;;4303662;33;43966;-82
2021/10/01 11:40:04;;;;;;;;;;;15.40;84.50;;;;;;4303531;33;44486;-83
2021/10/01 11:42:34;;;;;;;;;;;15.40;84.50;;;;;;4315737;33;44347;-81
2021/10/01 11:45:07;;;;;;;;;;;15.40;84.90;;;;;;4303636;33;43718;-82
2021/10/01 11:47:34;;;;;;;;;;;15.50;84.70;;;;;;4316633;33;44208;-82
2021/10/01 11:50:10;;;;;;;;;;;15.40;84.20;;;;;;4315514;33;42636;-83
2021/10/01 11:52:43;;;;;;;;;;;15.50;84.20;;;;;;4317364;33;20010;-83
2021/10/01 11:55:14;;;;;;;;;;;15.50;84.40;;;;;;4316781;33;45854;-83
2021/10/01 11:57:46;;;;;;;;;;;15.50;83.90;;;;;;4316740;33;43486;-83
2021/10/01 12:00:18;;;;;;;;;;;15.50;83.90;;;;;;4316324;33;44098;-82
2021/10/01 12:02:51;;;;;;;;;;;15.50;83.70;;;;;;4303115;33;42803;-82
2021/10/01 12:05:34;;;;;;;;;;;15.50;83.70;;;;;;4303519;33;45142;-83
2021/10/01 12:08:05;;;;;;;;;;;15.50;83.10;;;;;;4316318;33;43926;-81
2021/10/01 12:10:49;;;;;;;;;;;15.50;83.30;;;;;;4315678;33;41538;-84
2021/10/01 12:13:37;;;;;;;;;;;15.60;83.20;;;;;;4304820;33;46333;-83
2021/10/01 12:16:09;;;;;;;;;;;15.60;83.10;;;;;;4316596;33;43715;-84
2021/10/01 12:18:44;;;;;;;;;;;15.60;82.90;;;;;;4316473;33;44050;-83
2021/10/01 12:21:27;;;;;;;;;;;15.60;82.50;;;;;;4316422;33;44503;-82
2021/10/01 12:24:02;;;;;;;;;;;15.60;82.90;;;;;;4317275;33;20010;-82
2021/10/01 12:26:35;;;;;;;;;;;15.60;82.80;;;;;;4316065;33;43842;-83
2021/10/01 12:29:14;;;;;;;;;;;15.60;82.70;;;;;;4303205;33;46066;-82
2021/10/01 12:31:50;;;;;;;;;;;15.60;82.60;;;;;;4302833;33;44255;-82
2021/10/01 12:34:22;;;;;;;;;;;15.60;82.90;;;;;;4316212;33;43934;-82
2021/10/01 12:36:54;;;;;;;;;;;15.60;83.20;;;;;;4302783;33;43433;-82
2021/10/01 12:39:31;;;;;;;;;;;15.60;83.20;;;;;;4316258;33;43169;-82
2021/10/01 12:42:08;;;;;;;;;;;15.70;83.00;;;;;;4315895;33;44057;-82
2021/10/01 12:44:39;;;;;;;;;;;15.70;83.20;;;;;;4316190;33;44009;-83
2021/10/01 12:47:24;;;;;;;;;;;15.70;83.30;;;;;;4302674;33;44173;-83
2021/10/01 12:50:05;;;;;;;;;;;15.70;83.30;;;;;;4303078;33;42656;-82
2021/10/01 12:52:44;;;;;;;;;;;15.70;83.30;;;;;;4302529;33;43034;-84
2021/10/01 12:55:15;;;;;;;;;;;15.70;83.20;;;;;;4316730;33;20002;-82
2021/10/01 12:57:49;;;;;;;;;;;15.80;83.20;;;;;;4303100;33;43982;-82
2021/10/01 13:00:23;;;;;;;;;;;15.80;83.50;;;;;;4302963;33;43164;-83
2021/10/01 13:02:58;;;;;;;;;;;15.80;84.30;;;;;;4315311;33;42927;-82
2021/10/01 13:05:31;;;;;;;;;;;15.90;83.50;;;;;;4316097;33;46023;-81
2021/10/01 13:08:03;;;;;;;;;;;15.90;83.40;;;;;;4302331;33;43372;-82
2021/10/01 13:10:47;;;;;;;;;;;15.90;83.40;;;;;;4316019;33;42875;-84
2021/10/01 13:13:33;;;;;;;;;;;15.90;83.20;;;;;;4315990;33;44251;-83
2021/10/01 13:16:07;;;;;;;;;;;15.90;82.90;;;;;;4302656;33;42566;-83
2021/10/01 13:18:37;;;;;;;;;;;15.90;82.90;;;;;;4302736;33;44728;-82
2021/10/01 13:21:15;;;;;;;;;;;15.90;83.10;;;;;;4304548;33;45557;-82
2021/10/01 13:23:51;;;;;;;;;;;16.00;82.60;;;;;;4305887;33;42195;-84
2021/10/01 13:26:40;;;;;;;;;;;15.90;82.90;;;;;;4306309;33;19994;-83
2021/10/01 13:29:12;;;;;;;;;;;15.90;82.90;;;;;;4318787;33;44466;-84
2021/10/01 13:31:43;;;;;;;;;;;16.00;83.00;;;;;;4305554;33;45831;-83
2021/10/01 13:34:20;;;;;;;;;;;16.00;82.70;;;;;;4306204;33;44803;-82
2021/10/01 13:36:47;;;;;;;;;;;16.00;82.80;;;;;;4305850;33;41640;-83
2021/10/01 13:39:17;;;;;;;;;;;16.00;82.80;;;;;;4318225;33;42916;-83
2021/10/01 13:41:46;;;;;;;;;;;16.00;82.80;;;;;;4318156;33;44219;-82
2021/10/01 13:44:19;;;;;;;;;;;16.00;82.50;;;;;;4305436;33;44648;-82
2021/10/01 13:46:46;;;;;;;;;;;16.00;82.60;;;;;;4305144;33;42910;-83
2021/10/01 13:49:19;;;;;;;;;;;16.00;82.60;;;;;;4318274;33;43195;-83
2021/10/01 13:51:46;;;;;;;;;;;16.00;82.50;;;;;;4305674;33;42929;-83
2021/10/01 13:54:13;;;;;;;;;;;16.00;82.20;;;;;;4318447;33;46019;-83
2021/10/01 13:56:43;;;;;;;;;;;16.00;82.20;;;;;;4306646;33;20399;-84
2021/10/01 13:59:10;;;;;;;;;;;16.00;82.70;;;;;;4304717;33;42680;-82
2021/10/01 14:01:37;;;;;;;;;;;16.00;82.20;;;;;;4317694;33;43903;-82
2021/10/01 14:04:07;;;;;;;;;;;16.00;82.60;;;;;;4305507;33;44059;-83
2021/10/01 14:06:34;;;;;;;;;;;16.00;82.30;;;;;;4317850;33;42783;-82
2021/10/01 14:09:01;;;;;;;;;;;16.00;82.40;;;;;;4318295;33;43374;-83
2021/10/01 14:11:48;;;;;;;;;;;16.00;82.40;;;;;;4307291;33;46366;-83
2021/10/01 14:14:16;;;;;;;;;;;16.00;82.50;;;;;;4316514;33;43398;-83
2021/10/01 14:16:43;;;;;;;;;;;16.00;82.40;;;;;;4304501;33;46188;-84
2021/10/01 14:19:13;;;;;;;;;;;16.00;81.90;;;;;;4317622;33;42749;-84
2021/10/01 14:21:43;;;;;;;;;;;16.00;82.30;;;;;;4305058;33;43342;-81
2021/10/01 14:24:13;;;;;;;;;;;16.00;82.40;;;;;;4304825;33;44616;-82
2021/10/01 14:26:40;;;;;;;;;;;16.00;82.10;;;;;;4304618;33;43451;-82
2021/10/01 14:29:07;;;;;;;;;;;15.90;82.30;;;;;;4304619;33;43547;-83
2021/10/01 14:31:34;;;;;;;;;;;15.90;82.20;;;;;;4304733;33;44229;-82
2021/10/01 14:34:01;;;;;;;;;;;15.90;82.20;;;;;;4317443;33;44043;-82
2021/10/01 14:36:30;;;;;;;;;;;15.90;82.50;;;;;;4304273;33;43284;-83
2021/10/01 14:39:00;;;;;;;;;;;15.90;82.60;;;;;;4304784;33;44177;-84
2021/10/01 14:41:27;;;;;;;;;;;15.90;82.30;;;;;;4316284;33;42665;-86
2021/10/01 14:43:54;;;;;;;;;;;15.90;82.20;;;;;;4317492;33;43898;-83
2021/10/01 14:46:21;;;;;;;;;;;15.90;82.40;;;;;;4317759;33;43922;-83
2021/10/01 14:48:51;;;;;;;;;;;15.80;82.40;;;;;;4304539;33;43918;-82
2021/10/01 14:51:18;;;;;;;;;;;15.80;82.60;;;;;;4303969;33;43820;-82
2021/10/01 14:53:46;;;;;;;;;;;15.80;82.80;;;;;;4317332;33;43034;-84
2021/10/01 14:56:16;;;;;;;;;;;15.80;82.80;;;;;;4304472;33;43811;-82
2021/10/01 14:58:43;;;;;;;;;;;15.80;83.00;;;;;;4317835;33;20018;-83
2021/10/01 15:01:10;;;;;;;;;;;15.80;83.00;;;;;;4304469;33;43944;-82
2021/10/01 15:03:38;;;;;;;;;;;15.90;83.10;;;;;;4304306;33;43253;-82
2021/10/01 15:06:05;;;;;;;;;;;15.80;83.00;;;;;;4315917;33;43325;-83
2021/10/01 15:08:32;;;;;;;;;;;15.90;83.10;;;;;;4317050;33;44284;-82
2021/10/01 15:10:59;;;;;;;;;;;15.80;83.20;;;;;;4303864;33;44283;-83
2021/10/01 15:13:26;;;;;;;;;;;15.90;83.30;;;;;;4304084;33;43104;-82
2021/10/01 15:15:58;;;;;;;;;;;15.90;83.20;;;;;;4317408;33;44074;-81
2021/10/01 15:18:26;;;;;;;;;;;15.90;83.10;;;;;;4316987;33;42298;-82
2021/10/01 15:20:53;;;;;;;;;;;15.80;83.30;;;;;;4303780;33;45364;-82
2021/10/01 15:23:20;;;;;;;;;;;15.80;83.00;;;;;;4303584;33;44275;-82
2021/10/01 15:25:49;;;;;;;;;;;15.90;83.10;;;;;;4317039;33;43203;-82
2021/10/01 15:28:17;;;;;;;;;;;15.80;83.00;;;;;;4303860;33;42476;-81
2021/10/01 15:30:44;;;;;;;;;;;15.80;82.90;;;;;;4303568;33;42981;-81
2021/10/01 15:33:16;;;;;;;;;;;15.80;83.00;;;;;;4303430;33;43865;-83
2021/10/01 15:35:45;;;;;;;;;;;15.80;83.00;;;;;;4317281;33;45789;-83
2021/10/01 15:38:12;;;;;;;;;;;15.80;83.00;;;;;;4303577;33;44431;-83
2021/10/01 15:40:40;;;;;;;;;;;15.80;83.00;;;;;;4316792;33;43490;-83
2021/10/01 15:43:13;;;;;;;;;;;15.80;83.00;;;;;;4316090;33;44862;-82
2021/10/01 15:45:47;;;;;;;;;;;15.80;83.00;;;;;;4316887;33;44753;-81
2021/10/01 15:48:14;;;;;;;;;;;15.80;82.70;;;;;;4316821;33;45100;-83
2021/10/01 15:50:43;;;;;;;;;;;15.80;82.50;;;;;;4303853;33;46156;-83
2021/10/01 15:53:15;;;;;;;;;;;15.80;82.90;;;;;;4316301;33;42982;-83
2021/10/01 15:55:42;;;;;;;;;;;15.70;82.90;;;;;;4316941;33;43249;-84
2021/10/01 15:58:18;;;;;;;;;;;15.80;82.90;;;;;;4316617;33;45955;-83
2021/10/01 16:00:45;;;;;;;;;;;15.80;83.00;;;;;;4316367;33;42720;-82
2021/10/01 16:03:15;;;;;;;;;;;15.80;83.00;;;;;;4315904;33;44563;-83
2021/10/01 16:05:50;;;;;;;;;;;15.70;83.00;;;;;;4303529;33;44907;-83
2021/10/01 16:08:17;;;;;;;;;;;15.80;83.10;;;;;;4315717;33;43285;-84
2021/10/01 16:10:44;;;;;;;;;;;15.70;82.90;;;;;;4315113;33;42882;-83
2021/10/01 16:13:16;;;;;;;;;;;15.80;83.10;;;;;;4316065;33;42645;-83
2021/10/01 16:15:43;;;;;;;;;;;15.80;83.00;;;;;;4316576;33;44201;-83
2021/10/01 16:18:11;;;;;;;;;;;15.70;82.90;;;;;;4316237;33;43358;-84
2021/10/01 16:20:39;;;;;;;;;;;15.80;83.10;;;;;;4316272;33;44227;-83
2021/10/01 16:23:11;;;;;;;;;;;15.80;83.20;;;;;;4315322;33;43220;-85